Time;durP1;ratioP1;P1;durP2;ratioP2;P2;SDS_P1;SDS_P2;PMS_P1;PMS_P2;Temp;Humidity;BMP_temperature;BMP_pressure;BME280_temperature;BME280_humidity;BME280_pressure;Samples;Min_cycle;Max_cycle;Signal;HPM_P1;HPM_P2
2022/08/10 00:01:51;;;;;;;11.00;6.93;;;;;;;19.21;72.41;95148.38;5082957;28;20043;-64
2022/08/10 00:04:20;;;;;;;10.65;6.00;;;;;;;19.19;73.36;95139.91;5080135;28;20331;-65
2022/08/10 00:06:53;;;;;;;10.75;6.25;;;;;;;19.17;73.52;95136.78;5078087;28;20113;-65
2022/08/10 00:09:21;;;;;;;9.77;6.35;;;;;;;19.15;73.55;95133.63;5076676;28;20624;-65
2022/08/10 00:11:48;;;;;;;11.38;6.80;;;;;;;19.09;74.17;95124.19;5076084;28;20056;-65
2022/08/10 00:14:15;;;;;;;13.88;6.55;;;;;;;19.07;75.00;95134.25;5079574;28;20044;-65
2022/08/10 00:16:42;;;;;;;10.57;6.38;;;;;;;18.91;75.15;95134.34;5073096;28;20889;-65
2022/08/10 00:19:09;;;;;;;9.18;7.20;;;;;;;18.73;75.08;95132.34;5081715;28;20048;-65
2022/08/10 00:21:36;;;;;;;10.52;6.55;;;;;;;18.68;76.72;95125.25;5075107;28;20442;-65
2022/08/10 00:24:03;;;;;;;18.75;7.00;;;;;;;18.66;78.34;95134.50;5078453;28;20040;-65
2022/08/10 00:26:30;;;;;;;9.55;6.20;;;;;;;18.62;78.33;95136.91;5077207;28;20048;-65
2022/08/10 00:29:18;;;;;;;9.73;7.03;;;;;;;18.56;79.15;95147.75;5061737;28;20047;-65
2022/08/10 00:31:44;;;;;;;11.20;7.15;;;;;;;18.47;80.21;95150.16;5076910;28;20036;-65
2022/08/10 00:34:26;;;;;;;10.90;7.40;;;;;;;18.37;81.17;95145.75;5076933;28;20036;-65
2022/08/10 00:36:53;;;;;;;9.38;7.03;;;;;;;18.28;81.43;95147.38;5074576;28;20057;-65
2022/08/10 00:39:20;;;;;;;9.38;6.85;;;;;;;18.24;82.31;95135.78;5080037;28;20047;-65
2022/08/10 00:41:47;;;;;;;9.23;6.68;;;;;;;18.23;82.08;95142.91;5074628;28;20197;-65
2022/08/10 00:44:37;;;;;;;13.43;7.35;;;;;;;18.14;82.33;95132.16;5075710;28;20044;-65
2022/08/10 00:47:05;;;;;;;17.20;7.07;;;;;;;18.10;83.03;95130.34;5077396;28;20849;-65
2022/08/10 00:49:48;;;;;;;10.80;7.67;;;;;;;18.05;83.26;95128.50;5074502;28;20051;-65
2022/08/10 00:52:18;;;;;;;15.48;7.00;;;;;;;18.08;82.91;95138.50;5077162;28;20730;-65
2022/08/10 00:54:46;;;;;;;13.45;7.63;;;;;;;18.04;83.13;95148.03;5077677;28;20048;-65
2022/08/10 00:57:14;;;;;;;11.65;7.30;;;;;;;17.96;82.84;95145.94;5079384;28;20048;-65
2022/08/10 00:59:45;;;;;;;10.93;7.88;;;;;;;17.84;83.34;95132.25;5075801;28;20054;-65
2022/08/10 01:02:30;;;;;;;11.00;8.27;;;;;;;17.68;84.11;95144.66;5079323;28;20135;-66
2022/08/10 01:05:01;;;;;;;10.52;7.55;;;;;;;17.57;84.99;95133.38;5074796;28;20036;-65
2022/08/10 01:08:17;;;;;;;13.27;7.45;;;;;;;17.49;85.11;95147.09;5081109;28;20130;-65
2022/08/10 01:10:56;;;;;;;11.70;7.68;;;;;;;17.36;85.70;95146.59;5043045;28;20391;-65
2022/08/10 01:13:55;;;;;;;14.55;7.30;;;;;;;17.26;87.68;95154.50;5083848;28;20051;-65
2022/08/10 01:16:36;;;;;;;12.10;7.82;;;;;;;17.13;88.17;95140.03;5058879;28;20075;-64
2022/08/10 01:19:27;;;;;;;9.77;6.93;;;;;;;17.09;89.02;95138.19;5082470;28;20048;-65
2022/08/10 01:21:57;;;;;;;12.35;7.65;;;;;;;16.98;88.79;95143.47;5081703;28;20051;-65
2022/08/10 01:24:54;;;;;;;17.35;7.30;;;;;;;16.91;89.08;95142.94;5080116;28;20048;-65
2022/08/10 01:28:00;;;;;;;10.23;7.88;;;;;;;16.93;89.35;95127.66;5082718;28;20047;-65
2022/08/10 01:30:31;;;;;;;11.52;7.88;;;;;;;16.86;89.64;95135.03;5077487;28;20070;-65
2022/08/10 01:33:16;;;;;;;11.10;7.90;;;;;;;16.93;88.74;95135.56;5079608;28;20523;-65
2022/08/10 01:36:15;;;;;;;10.55;8.23;;;;;;;16.92;88.94;95128.72;5081649;28;20047;-65
2022/08/10 01:38:44;;;;;;;;;;;;;;;16.94;88.48;95128.44;5080270;28;20758;-65
2022/08/10 01:41:20;;;;;;;15.77;7.97;;;;;;;16.89;88.64;95128.44;5078170;28;20758;-65
2022/08/10 01:43:58;;;;;;;12.55;8.13;;;;;;;16.87;89.18;95126.09;5082850;28;20032;-65
2022/08/10 01:46:32;;;;;;;12.50;8.38;;;;;;;16.89;89.44;95128.44;5078350;28;20467;-65
2022/08/10 01:49:01;;;;;;;13.13;9.43;;;;;;;16.87;89.43;95128.72;5080402;28;20078;-65
2022/08/10 01:51:58;;;;;;;16.02;7.88;;;;;;;16.86;89.40;95135.03;5081963;28;20051;-65
2022/08/10 01:54:27;;;;;;;14.98;8.43;;;;;;;16.86;89.17;95124.50;5081587;28;20059;-65
2022/08/10 01:56:57;;;;;;;14.20;7.97;;;;;;;16.83;90.29;95114.50;5075917;28;20051;-65
2022/08/10 01:59:35;;;;;;;22.45;10.00;;;;;;;16.83;89.92;95109.25;5081799;28;20852;-65
2022/08/10 02:02:08;;;;;;;15.32;8.70;;;;;;;16.83;90.29;95127.66;5077903;28;20504;-65
2022/08/10 02:04:38;;;;;;;17.40;8.85;;;;;;;16.80;90.59;95130.81;5074971;28;20048;-65
2022/08/10 02:07:08;;;;;;;12.57;8.85;;;;;;;16.71;91.30;95124.47;5083319;28;20044;-65
2022/08/10 02:09:39;;;;;;;15.40;9.07;;;;;;;16.75;91.63;95122.91;5080573;28;20045;-65
2022/08/10 02:12:09;;;;;;;11.50;8.07;;;;;;;16.74;91.55;95127.34;5079986;28;20048;-65
2022/08/10 02:14:43;;;;;;;12.73;8.48;;;;;;;16.75;92.14;95122.91;5077684;28;20043;-65
2022/08/10 02:17:16;;;;;;;14.73;8.07;;;;;;;16.77;91.83;95120.78;5080910;28;20071;-65
2022/08/10 02:20:25;;;;;;;14.90;9.00;;;;;;;16.69;91.77;95129.19;5077064;28;20138;-65
2022/08/10 02:23:01;;;;;;;12.38;8.85;;;;;;;16.66;92.69;95132.38;5078181;28;20139;-65
2022/08/10 02:25:30;;;;;;;18.60;9.02;;;;;;;16.61;92.65;95133.91;5075012;28;20048;-65
2022/08/10 02:28:12;;;;;;;13.70;9.25;;;;;;;16.50;93.23;95127.06;5079419;28;20036;-65
2022/08/10 02:31:08;;;;;;;10.60;8.52;;;;;;;16.52;93.83;95124.97;5077566;28;20040;-65
2022/08/10 02:33:41;;;;;;;13.75;8.73;;;;;;;16.51;93.82;95122.59;5079253;28;20705;-65
2022/08/10 02:36:26;;;;;;;14.25;9.02;;;;;;;16.51;93.05;95118.16;5076006;28;20160;-65
2022/08/10 02:38:57;;;;;;;11.98;8.73;;;;;;;16.49;93.37;95125.47;5079122;28;20051;-65
2022/08/10 02:41:50;;;;;;;13.40;8.98;;;;;;;16.41;93.63;95118.13;5078791;28;20039;-65
2022/08/10 02:44:58;;;;;;;16.23;8.77;;;;;;;16.36;94.07;95120.75;5078998;28;20035;-65
2022/08/10 02:47:56;;;;;;;15.32;9.52;;;;;;;16.20;95.49;95110.19;5079055;28;20056;-65
2022/08/10 02:50:25;;;;;;;15.55;10.75;;;;;;;16.22;96.19;95110.72;5079821;28;20051;-65
2022/08/10 02:53:01;;;;;;;12.68;8.32;;;;;;;16.22;96.51;95110.72;5081511;28;20050;-65
2022/08/10 02:55:39;;;;;;;17.40;9.43;;;;;;;16.19;97.02;95108.63;5076464;28;20076;-65
2022/08/10 02:58:10;;;;;;;13.20;9.45;;;;;;;16.11;96.82;95114.34;5077242;28;20043;-65
2022/08/10 03:00:52;;;;;;;11.30;9.40;;;;;;;15.99;97.38;95116.41;5075290;28;20055;-65
2022/08/10 03:03:22;;;;;;;14.25;9.25;;;;;;;15.93;98.89;95127.97;5079333;28;20115;-66
2022/08/10 03:05:54;;;;;;;11.27;8.88;;;;;;;15.94;99.30;95129.56;5072713;28;20048;-66
2022/08/10 03:08:26;;;;;;;13.88;9.60;;;;;;;15.96;98.64;95128.25;5071994;28;20047;-65
2022/08/10 03:10:58;;;;;;;14.05;8.68;;;;;;;15.79;98.34;95107.44;5081713;28;20071;-65
2022/08/10 03:13:27;;;;;;;13.55;9.68;;;;;;;15.89;99.14;95127.69;5072835;28;20044;-65
2022/08/10 03:15:55;;;;;;;15.48;10.25;;;;;;;16.02;99.60;95145.59;5078860;28;20046;-65
2022/08/10 03:18:23;;;;;;;17.10;10.50;;;;;;;15.86;99.61;95131.63;5086453;28;20055;-65
2022/08/10 03:20:52;;;;;;;13.93;9.63;;;;;;;15.89;100.00;95137.41;5078474;28;20044;-65
2022/08/10 03:23:23;;;;;;;14.05;9.63;;;;;;;15.90;100.00;95133.72;5068290;28;20036;-65
2022/08/10 03:25:52;;;;;;;12.00;9.23;;;;;;;15.83;100.00;95119.00;5088672;28;20055;-65
2022/08/10 03:28:23;;;;;;;15.60;9.40;;;;;;;15.97;100.00;95153.47;5076802;28;20040;-65
2022/08/10 03:30:51;;;;;;;11.18;8.82;;;;;;;15.93;100.00;95143.72;5077242;28;20044;-66
2022/08/10 03:33:21;;;;;;;12.00;9.43;;;;;;;15.90;100.00;95149.47;5079618;28;20429;-65
2022/08/10 03:35:49;;;;;;;13.32;10.52;;;;;;;15.96;100.00;95158.97;5080793;28;20055;-65
2022/08/10 03:38:36;;;;;;;17.67;10.13;;;;;;;15.92;100.00;95153.44;5074449;28;20047;-65
2022/08/10 03:41:05;;;;;;;14.50;9.43;;;;;;;15.93;100.00;95143.72;5080168;28;20040;-65
2022/08/10 03:43:33;;;;;;;12.30;9.75;;;;;;;15.92;100.00;95147.38;5079684;28;20028;-65
2022/08/10 03:46:03;;;;;;;18.95;11.27;;;;;;;15.86;100.00;95144.75;5073749;28;20122;-65
2022/08/10 03:48:32;;;;;;;17.80;9.77;;;;;;;15.90;100.00;95144.22;5063728;28;20503;-66
2022/08/10 03:51:17;;;;;;;12.88;9.35;;;;;;;16.03;100.00;95151.66;5077607;28;20051;-65
2022/08/10 03:53:45;;;;;;;16.02;8.45;;;;;;;16.02;100.00;95137.72;5079109;28;20048;-65
2022/08/10 03:56:37;;;;;;;16.00;9.02;;;;;;;16.17;100.00;95144.06;5078338;28;20067;-65
2022/08/10 03:59:07;;;;;;;17.73;9.55;;;;;;;16.18;100.00;95156.94;5078452;28;20051;-65
2022/08/10 04:01:34;;;;;;;15.27;9.55;;;;;;;16.16;100.00;95151.16;5080274;28;20047;-65
2022/08/10 04:04:21;;;;;;;15.38;9.57;;;;;;;16.20;100.00;95165.34;5064550;28;20032;-66
2022/08/10 04:06:53;;;;;;;13.20;9.88;;;;;;;16.17;100.00;95170.34;5077492;28;20976;-66
2022/08/10 04:09:22;;;;;;;17.50;9.48;;;;;;;16.25;100.00;95172.47;5083643;28;20039;-66
2022/08/10 04:11:49;;;;;;;17.38;11.27;;;;;;;16.21;100.00;95172.22;5083389;28;20070;-65
2022/08/10 04:14:16;;;;;;;16.67;9.93;;;;;;;16.10;100.00;95175.03;5081389;28;20043;-65
2022/08/10 04:17:04;;;;;;;16.98;10.52;;;;;;;16.20;100.00;95186.38;5081600;28;20054;-65
2022/08/10 04:19:40;;;;;;;16.33;9.43;;;;;;;16.22;100.00;95186.94;5088363;28;20044;-65
2022/08/10 04:22:20;;;;;;;17.75;10.57;;;;;;;16.13;100.00;95177.94;5077024;28;20052;-65
2022/08/10 04:24:52;;;;;;;13.55;9.75;;;;;;;16.09;100.00;95179.50;5084547;28;20039;-65
2022/08/10 04:27:19;;;;;;;13.68;10.32;;;;;;;16.12;100.00;95186.13;5081195;28;20056;-65
2022/08/10 04:29:49;;;;;;;15.10;10.85;;;;;;;16.15;100.00;95183.75;5083429;28;20078;-65
2022/08/10 04:32:20;;;;;;;16.35;9.95;;;;;;;16.18;100.00;95166.69;5081320;28;20432;-65
2022/08/10 04:34:49;;;;;;;13.15;10.65;;;;;;;16.22;100.00;95173.81;5079281;28;20040;-65
2022/08/10 04:37:19;;;;;;;15.40;10.32;;;;;;;16.32;100.00;95164.38;5076894;28;20557;-73
2022/08/10 04:39:47;;;;;;;11.30;9.57;;;;;;;16.42;100.00;95172.25;5085995;28;20211;-72
2022/08/10 04:42:15;;;;;;;13.95;9.57;;;;;;;16.43;100.00;95168.59;5077978;28;20435;-72
2022/08/10 04:44:42;;;;;;;13.10;9.85;;;;;;;16.47;100.00;95169.66;5079640;28;20043;-73
2022/08/10 04:47:09;;;;;;;13.75;9.75;;;;;;;16.59;100.00;95159.69;5083540;28;20051;-73
2022/08/10 04:49:37;;;;;;;13.80;11.48;;;;;;;16.72;100.00;95170.75;5063461;28;20047;-72
2022/08/10 04:52:22;;;;;;;26.70;10.13;;;;;;;16.85;100.00;95170.28;5084724;28;20078;-72
2022/08/10 04:54:59;;;;;;;14.60;10.20;;;;;;;17.00;100.00;95178.19;5076693;28;20032;-72
2022/08/10 04:57:26;;;;;;;13.73;10.43;;;;;;;17.07;100.00;95151.63;5081986;28;20639;-72
2022/08/10 04:59:52;;;;;;;18.50;10.38;;;;;;;17.25;99.60;95155.56;5058576;28;20044;-73
2022/08/10 05:02:19;;;;;;;11.50;9.48;;;;;;;17.47;98.78;95165.00;5078706;28;20044;-73
2022/08/10 05:04:57;;;;;;;17.30;10.35;;;;;;;17.68;98.21;95171.81;5060210;28;20061;-72
2022/08/10 05:07:25;;;;;;;16.70;10.73;;;;;;;17.80;97.31;95162.81;5081138;28;20277;-72
2022/08/10 05:09:53;;;;;;;12.45;9.52;;;;;;;17.96;95.78;95172.28;5079023;28;20287;-73
2022/08/10 05:12:36;;;;;;;15.15;10.10;;;;;;;18.15;94.82;95168.00;5080905;28;20122;-72
2022/08/10 05:15:12;;;;;;;12.52;10.07;;;;;;;18.28;94.11;95169.25;5076964;28;20028;-72
2022/08/10 05:17:43;;;;;;;12.02;9.82;;;;;;;18.48;92.87;95172.84;5084459;28;20043;-72
2022/08/10 05:20:30;;;;;;;11.05;9.35;;;;;;;18.61;91.58;95182.00;5079193;28;20121;-73
2022/08/10 05:22:57;;;;;;;13.88;9.68;;;;;;;18.65;90.50;95178.53;5082595;28;20544;-72
2022/08/10 05:25:24;;;;;;;15.43;10.38;;;;;;;18.59;89.98;95174.38;5082072;28;20578;-72
2022/08/10 05:27:50;;;;;;;17.60;9.93;;;;;;;18.77;89.58;95175.59;5066343;28;21257;-72
2022/08/10 05:30:20;;;;;;;17.55;8.85;;;;;;;18.83;89.40;95174.50;5059944;28;20036;-72
2022/08/10 05:32:48;;;;;;;14.77;9.48;;;;;;;18.94;89.74;95166.53;5076315;28;20048;-73
2022/08/10 05:35:27;;;;;;;12.52;8.90;;;;;;;19.12;89.18;95171.13;5062753;28;20042;-73
2022/08/10 05:38:15;;;;;;;13.35;9.65;;;;;;;19.23;88.62;95172.63;5080386;28;20572;-72
2022/08/10 05:40:43;;;;;;;14.13;9.77;;;;;;;19.40;86.39;95179.38;5080063;28;20481;-73
2022/08/10 05:43:17;;;;;;;15.82;9.13;;;;;;;19.53;85.36;95181.34;5080087;28;20140;-73
2022/08/10 05:45:46;;;;;;;15.52;9.13;;;;;;;19.58;84.06;95173.38;5062320;28;20048;-73
2022/08/10 05:48:34;;;;;;;18.10;9.55;;;;;;;19.58;84.42;95173.38;5061953;28;20039;-73
2022/08/10 05:51:22;;;;;;;12.65;8.20;;;;;;;19.61;84.09;95172.81;5080602;28;20087;-73
2022/08/10 05:53:49;;;;;;;19.40;9.18;;;;;;;19.63;84.35;95173.34;5082294;28;20589;-73
2022/08/10 05:56:36;;;;;;;15.13;8.27;;;;;;;19.61;85.21;95167.53;5063181;28;20117;-73
2022/08/10 05:59:21;;;;;;;12.80;8.70;;;;;;;19.59;85.06;95174.97;5073091;28;20040;-73
2022/08/10 06:02:08;;;;;;;12.43;8.50;;;;;;;19.64;85.00;95182.84;5061971;28;20036;-72
2022/08/10 06:05:20;;;;;;;14.13;9.13;;;;;;;19.68;85.15;95183.84;5062916;28;20036;-72
2022/08/10 06:07:52;;;;;;;17.35;8.98;;;;;;;19.73;84.75;95179.56;5074045;28;20610;-72
2022/08/10 06:10:21;;;;;;;19.80;10.05;;;;;;;19.75;85.18;95172.97;5077798;28;20433;-73
2022/08/10 06:16:04;;;;;;;13.77;9.68;;;;;;;19.89;83.13;95188.16;5075685;28;20524;-72
2022/08/10 06:18:31;;;;;;;12.30;8.55;;;;;;;20.02;81.83;95177.72;5058612;28;20040;-72
2022/08/10 06:20:59;;;;;;;15.23;10.18;;;;;;;20.17;81.42;95178.59;5072952;28;20122;-72
2022/08/10 06:23:31;;;;;;;20.15;8.70;;;;;;;20.33;81.46;95177.34;5043505;28;20063;-72
2022/08/10 06:25:58;;;;;;;15.27;10.57;;;;;;;20.45;80.68;95179.56;5077726;28;20036;-72
2022/08/10 06:29:05;;;;;;;16.65;10.55;;;;;;;20.63;79.61;95175.38;5073187;28;20071;-71
2022/08/10 06:31:38;;;;;;;13.02;9.70;;;;;;;20.80;79.70;95174.91;5075953;28;20039;-72
2022/08/10 06:34:19;;;;;;;18.95;11.20;;;;;;;20.93;79.64;95178.69;5070604;28;20040;-71
2022/08/10 06:36:47;;;;;;;14.68;9.10;;;;;;;21.11;78.86;95175.22;5077263;28;20055;-72
2022/08/10 06:39:14;;;;;;;13.15;8.60;;;;;;;21.39;79.66;95185.88;5056686;28;20524;-72
2022/08/10 06:42:08;;;;;;;13.30;8.55;;;;;;;21.61;80.37;95171.22;5056714;28;20036;-72
2022/08/10 06:45:06;;;;;;;16.33;8.48;;;;;;;22.01;79.75;95184.84;5073683;28;20047;-72
2022/08/10 06:47:50;;;;;;;12.43;8.48;;;;;;;22.26;78.40;95192.31;5073624;28;20056;-72
2022/08/10 06:50:25;;;;;;;12.43;8.35;;;;;;;22.49;76.70;95181.75;5076485;28;20124;-72
2022/08/10 06:53:17;;;;;;;11.43;6.45;;;;;;;22.77;73.10;95171.88;5074751;28;20044;-72
2022/08/10 06:55:54;;;;;;;8.75;7.22;;;;;;;23.05;69.59;95185.88;5078185;28;20148;-72
2022/08/10 06:58:40;;;;;;;10.68;6.13;;;;;;;23.21;67.81;95178.34;5074916;28;20043;-72
2022/08/10 07:01:11;;;;;;;;;;;;;;;23.20;67.24;95186.59;5083947;28;20069;-71
2022/08/10 07:03:43;;;;;;;11.70;6.53;;;;;;;23.21;65.12;95178.34;5075688;28;19919;-71
2022/08/10 07:06:12;;;;;;;5.93;5.30;;;;;;;23.44;62.22;95186.28;5072896;28;20091;-71
2022/08/10 07:08:40;;;;;;;13.10;5.43;;;;;;;23.57;62.88;95174.81;5071454;28;20135;-72
2022/08/10 07:11:09;;;;;;;8.20;6.78;;;;;;;23.77;63.18;95178.81;5083539;28;20043;-68
2022/08/10 07:13:39;;;;;;;11.27;6.35;;;;;;;23.96;59.58;95183.13;5085668;28;20048;-68
2022/08/10 07:16:27;;;;;;;8.95;5.93;;;;;;;24.11;59.92;95172.09;5082270;28;20487;-68
2022/08/10 07:18:57;;;;;;;15.25;6.35;;;;;;;24.21;59.32;95177.09;5080307;28;20040;-67
2022/08/10 07:21:26;;;;;;;10.23;5.93;;;;;;;24.43;59.43;95172.75;5075487;28;20048;-66
2022/08/10 07:23:54;;;;;;;12.05;6.28;;;;;;;24.47;58.08;95173.72;5079860;28;20048;-67
2022/08/10 07:26:28;;;;;;;8.27;5.18;;;;;;;24.66;55.03;95180.66;5080250;28;20172;-66
2022/08/10 07:28:56;;;;;;;7.53;6.07;;;;;;;24.63;56.33;95171.41;5075723;28;20196;-67
2022/08/10 07:31:24;;;;;;;7.85;5.20;;;;;;;24.82;55.04;95170.34;5080419;28;20127;-65
2022/08/10 07:34:14;;;;;;;8.88;5.75;;;;;;;24.89;54.61;95166.09;5074418;28;20076;-66
2022/08/10 07:37:00;;;;;;;8.95;5.32;;;;;;;25.12;52.33;95179.25;5083644;28;20044;-67
2022/08/10 07:39:32;;;;;;;6.60;5.20;;;;;;;25.09;53.86;95178.00;5070754;28;20056;-66
2022/08/10 07:42:21;;;;;;;9.75;5.60;;;;;;;25.07;51.71;95163.44;5079252;28;20039;-66
2022/08/10 07:44:49;;;;;;;9.55;5.43;;;;;;;25.06;52.74;95177.84;5076150;28;20036;-65
2022/08/10 07:47:21;;;;;;;5.82;4.97;;;;;;;25.19;52.64;95171.56;5077623;28;20581;-66
2022/08/10 07:50:11;;;;;;;7.22;5.30;;;;;;;25.38;51.90;95169.38;5075018;28;20044;-66
2022/08/10 07:52:39;;;;;;;5.93;4.78;;;;;;;25.44;51.25;95175.31;5079591;28;20047;-66
2022/08/10 07:55:08;;;;;;;6.63;4.80;;;;;;;25.66;50.96;95170.84;5076206;28;20048;-66
2022/08/10 07:57:37;;;;;;;7.18;4.90;;;;;;;25.88;51.44;95169.88;5079860;28;20436;-66
2022/08/10 08:00:10;;;;;;;9.18;5.05;;;;;;;26.17;50.56;95171.03;5074624;28;20101;-66
2022/08/10 08:02:44;;;;;;;6.78;5.50;;;;;;;26.22;52.42;95157.50;5079469;28;20046;-66
2022/08/10 08:05:13;;;;;;;9.32;5.55;;;;;;;26.10;52.95;95164.28;5076510;28;20032;-66
2022/08/10 08:08:01;;;;;;;8.82;5.88;;;;;;;26.15;52.03;95146.53;5078262;28;20069;-80
2022/08/10 08:10:30;;;;;;;10.98;6.47;;;;;;;26.47;51.44;95159.22;5041459;28;20032;-70
2022/08/10 08:12:58;;;;;;;6.68;5.60;;;;;;;26.61;49.80;95158.97;5079209;28;20136;-72
2022/08/10 08:15:26;;;;;;;9.85;6.28;;;;;;;26.43;50.17;95155.59;5082586;28;20593;-70
2022/08/10 08:18:18;;;;;;;6.50;5.82;;;;;;;26.18;50.48;95151.22;5080356;28;20043;-70
2022/08/10 08:20:53;;;;;;;6.55;4.72;;;;;;;26.39;49.08;95146.69;5080744;28;20050;-75
2022/08/10 08:23:21;;;;;;;6.72;4.45;;;;;;;26.42;48.08;95154.06;5058742;28;20052;-75
2022/08/10 08:26:10;;;;;;;7.80;5.22;;;;;;;26.71;47.59;95163.16;5064259;28;20036;-71
2022/08/10 08:28:44;;;;;;;7.60;5.78;;;;;;;26.80;46.18;95145.19;5079305;28;20165;-71
2022/08/10 08:31:13;;;;;;;8.95;5.88;;;;;;;27.11;46.85;95160.00;5080126;28;20097;-71
2022/08/10 08:33:42;;;;;;;7.45;4.65;;;;;;;27.25;46.16;95160.50;5075698;28;20056;-71
2022/08/10 08:36:12;;;;;;;6.88;4.75;;;;;;;27.34;45.45;95151.66;5076347;28;20111;-71
2022/08/10 08:38:42;;;;;;;5.82;4.10;;;;;;;27.42;44.81;95140.06;5048514;28;20052;-71
2022/08/10 08:41:25;;;;;;;6.88;5.20;;;;;;;27.57;44.92;95139.44;5060843;28;20036;-72
2022/08/10 08:44:08;;;;;;;6.20;4.60;;;;;;;27.93;41.50;95140.63;5078471;28;20651;-72
2022/08/10 08:46:43;;;;;;;13.80;4.68;;;;;;;28.21;39.55;95139.94;5057495;28;20059;-71
2022/08/10 08:49:42;;;;;;;7.20;3.60;;;;;;;28.10;42.11;95141.50;5051792;28;20645;-71
2022/08/10 08:52:41;;;;;;;4.65;4.00;;;;;;;28.14;42.38;95135.13;5055801;28;20049;-71
2022/08/10 08:55:22;;;;;;;4.85;3.63;;;;;;;27.90;42.82;95141.28;5052037;28;20044;-72
2022/08/10 08:58:29;;;;;;;8.05;3.75;;;;;;;27.95;42.46;95122.34;5071502;27;20048;-71
2022/08/10 09:01:19;;;;;;;5.35;3.78;;;;;;;28.15;42.12;95125.22;5053270;28;20052;-72
2022/08/10 09:03:56;;;;;;;4.88;3.60;;;;;;;28.47;42.12;95128.06;5052777;28;20545;-71
2022/08/10 09:06:53;;;;;;;4.47;3.63;;;;;;;28.75;40.91;95126.22;5067664;28;20053;-71
2022/08/10 09:09:55;;;;;;;4.88;3.40;;;;;;;28.87;40.98;95127.34;5033105;28;20052;-72
2022/08/10 09:13:07;;;;;;;4.30;3.80;;;;;;;28.14;42.26;95129.00;5055430;28;20041;-72
2022/08/10 09:15:55;;;;;;;8.02;4.15;;;;;;;27.95;43.35;95126.91;5047921;28;20029;-71
2022/08/10 09:19:16;;;;;;;10.15;4.43;;;;;;;28.12;43.82;95115.94;5051671;28;20120;-71
2022/08/10 09:22:12;;;;;;;7.38;4.00;;;;;;;28.61;42.16;95107.06;5021459;28;20056;-71
2022/08/10 09:25:08;;;;;;;8.32;4.40;;;;;;;29.21;39.47;95114.44;5054080;28;20048;-71
2022/08/10 09:27:46;;;;;;;5.60;3.92;;;;;;;29.32;39.23;95118.22;5054193;28;20040;-71
2022/08/10 09:30:21;;;;;;;4.78;3.78;;;;;;;29.14;39.25;95120.41;5051433;28;20040;-72
2022/08/10 09:33:21;;;;;;;5.45;4.35;;;;;;;29.26;39.38;95130.28;5054155;28;20048;-72
2022/08/10 09:36:26;;;;;;;5.15;3.90;;;;;;;29.48;38.22;95113.63;5060004;28;20158;-72
2022/08/10 09:39:17;;;;;;;7.20;3.50;;;;;;;29.85;39.48;95110.72;5051016;28;20576;-72
2022/08/10 09:42:14;;;;;;;7.18;3.70;;;;;;;30.22;37.14;95113.09;5051102;28;20041;-72
2022/08/10 09:44:43;;;;;;;9.45;3.75;;;;;;;30.28;36.59;95119.75;5052897;28;20705;-72
2022/08/10 09:47:33;;;;;;;10.07;3.88;;;;;;;30.33;36.39;95104.50;5074991;28;20151;-72
2022/08/10 09:50:42;;;;;;;6.57;3.90;;;;;;;30.08;37.44;95118.16;5079392;28;20035;-71
2022/08/10 09:54:06;;;;;;;4.40;3.28;;;;;;;29.83;36.94;95106.81;5060720;28;20036;-72
2022/08/10 09:56:50;;;;;;;6.03;4.15;;;;;;;29.32;38.80;95104.81;5048102;28;20059;-72
2022/08/10 09:59:36;;;;;;;9.25;4.72;;;;;;;29.26;38.85;95106.16;5079590;28;20032;-70
2022/08/10 10:02:45;;;;;;;5.70;3.65;;;;;;;29.26;38.84;95106.97;5078794;28;20052;-68
2022/08/10 10:05:33;;;;;;;5.68;4.75;;;;;;;28.97;40.41;95100.00;5077724;28;20040;-66
2022/08/10 10:08:03;;;;;;;7.88;3.90;;;;;;;28.88;40.62;95102.06;5075751;28;20059;-67
2022/08/10 10:10:38;;;;;;;7.10;3.88;;;;;;;29.29;38.06;95105.47;5079889;28;20089;-69
2022/08/10 10:13:23;;;;;;;8.83;3.93;;;;;;;29.64;38.52;95110.16;5079691;28;20044;-67
2022/08/10 10:16:13;;;;;;;4.75;3.42;;;;;;;30.15;37.46;95117.53;5078546;28;20465;-67
2022/08/10 10:18:53;;;;;;;5.45;3.75;;;;;;;30.02;37.33;95114.19;5073258;28;20036;-70
2022/08/10 10:21:32;;;;;;;3.92;3.53;;;;;;;30.04;36.63;95101.19;5077540;28;20074;-70
2022/08/10 10:24:49;;;;;;;7.40;3.47;;;;;;;30.23;36.57;95105.81;5077706;28;20039;-71
2022/08/10 10:27:39;;;;;;;4.40;3.83;;;;;;;30.47;36.14;95107.53;5082069;28;20043;-71
2022/08/10 10:30:08;;;;;;;5.10;3.83;;;;;;;30.97;35.36;95119.31;5075261;28;20063;-71
2022/08/10 10:32:53;;;;;;;4.40;3.63;;;;;;;31.47;34.01;95113.28;5079821;28;20044;-69
2022/08/10 10:35:48;;;;;;;6.95;3.83;;;;;;;31.82;34.04;95113.88;5058682;28;20055;-70
2022/08/10 10:38:17;;;;;;;7.43;4.30;;;;;;;32.19;33.00;95116.00;5074643;28;20146;-69
2022/08/10 10:40:51;;;;;;;4.65;3.90;;;;;;;32.34;31.85;95110.81;5074533;28;20134;-69
2022/08/10 10:43:32;;;;;;;7.38;3.65;;;;;;;32.53;32.77;95110.69;5078750;28;20042;-69
2022/08/10 10:46:25;;;;;;;4.65;3.42;;;;;;;32.83;31.45;95104.53;5061024;28;20032;-69
2022/08/10 10:49:01;;;;;;;7.05;3.30;;;;;;;32.99;31.17;95111.63;5027382;28;20052;-68
2022/08/10 10:51:36;;;;;;;6.18;3.15;;;;;;;33.05;31.25;95107.47;5062471;28;20043;-68
2022/08/10 10:54:06;;;;;;;5.05;3.90;;;;;;;33.49;31.24;95110.25;5082624;28;20044;-68
2022/08/10 10:57:21;;;;;;;5.55;3.92;;;;;;;33.77;30.46;95108.19;5078334;28;20044;-69
2022/08/10 11:00:09;;;;;;;;;;;;;;;33.32;31.44;95108.16;5063755;28;20044;-70
2022/08/10 11:02:48;;;;;;;5.38;3.50;;;;;;;33.41;30.64;95110.56;5078896;28;19931;-70
2022/08/10 11:05:41;;;;;;;5.30;4.10;;;;;;;33.33;31.61;95115.88;5079984;28;20157;-68
2022/08/10 11:08:18;;;;;;;4.00;3.60;;;;;;;33.40;30.86;95117.09;5073237;28;20700;-69
2022/08/10 11:11:00;;;;;;;8.20;3.92;;;;;;;32.69;32.28;95104.38;5080357;28;20489;-68
2022/08/10 11:13:37;;;;;;;5.72;4.05;;;;;;;32.29;32.73;95108.44;5077982;28;20040;-68
2022/08/10 11:16:49;;;;;;;6.63;4.18;;;;;;;31.42;34.84;95106.25;5078088;28;20071;-69
2022/08/10 11:19:45;;;;;;;5.00;4.35;;;;;;;30.99;36.43;95105.47;5078139;28;20079;-69
2022/08/10 11:22:51;;;;;;;5.70;4.18;;;;;;;30.87;35.98;95103.72;5075317;28;20215;-69
2022/08/10 11:25:27;;;;;;;5.47;4.82;;;;;;;30.64;37.46;95107.09;5079344;28;20065;-69
2022/08/10 11:27:58;;;;;;;10.00;5.07;;;;;;;30.35;37.92;95107.63;5075059;28;20051;-66
2022/08/10 11:30:32;;;;;;;6.45;4.07;;;;;;;29.80;38.66;95102.94;5078191;28;20040;-66
2022/08/10 11:33:06;;;;;;;6.57;4.43;;;;;;;29.62;39.47;95101.69;5074799;28;20043;-66
2022/08/10 11:35:49;;;;;;;7.85;4.55;;;;;;;29.26;40.43;95096.22;5077127;28;20044;-66
2022/08/10 11:38:29;;;;;;;6.37;4.37;;;;;;;28.92;41.06;95097.59;5071835;28;20652;-65
2022/08/10 11:41:40;;;;;;;9.07;4.70;;;;;;;28.94;42.37;95095.34;5073883;28;20042;-66
2022/08/10 11:44:43;;;;;;;7.30;4.68;;;;;;;28.86;42.31;95072.16;5076505;28;20708;-67
2022/08/10 11:47:16;;;;;;;8.82;4.22;;;;;;;28.82;41.76;95084.69;5079748;28;20051;-67
2022/08/10 11:49:58;;;;;;;6.27;4.43;;;;;;;28.79;41.98;95078.09;5075541;28;20056;-70
2022/08/10 11:52:28;;;;;;;5.63;4.30;;;;;;;28.66;42.87;95069.31;5064404;28;20040;-67
2022/08/10 11:54:59;;;;;;;5.15;4.10;;;;;;;28.67;42.00;95065.53;5077624;28;20048;-67
2022/08/10 11:57:30;;;;;;;4.18;3.78;;;;;;;28.33;43.22;95062.25;5079043;28;20097;-67
2022/08/10 12:00:17;;;;;;;5.72;4.22;;;;;;;28.56;42.80;95043.81;5064381;28;20218;-67
2022/08/10 12:03:04;;;;;;;4.82;4.32;;;;;;;29.14;41.38;95066.78;5082514;28;20044;-67
2022/08/10 12:05:39;;;;;;;6.25;3.85;;;;;;;29.52;40.99;95071.56;5060928;28;20044;-67
2022/08/10 12:08:24;;;;;;;5.10;4.63;;;;;;;30.40;39.78;95072.44;5080237;28;20037;-65
2022/08/10 12:11:14;;;;;;;4.68;3.80;;;;;;;31.35;36.13;95074.66;5078219;28;20040;-66
2022/08/10 12:14:03;;;;;;;4.40;3.33;;;;;;;32.26;34.17;95071.44;5080314;28;20036;-72
2022/08/10 12:16:51;;;;;;;6.60;3.58;;;;;;;32.51;34.67;95066.38;5083949;27;20036;-72
2022/08/10 12:19:41;;;;;;;5.40;3.55;;;;;;;32.71;33.63;95077.81;5080364;28;20042;-73
2022/08/10 12:22:33;;;;;;;7.50;3.90;;;;;;;31.92;34.56;95074.00;5043769;28;20033;-73
2022/08/10 12:25:10;;;;;;;6.07;3.65;;;;;;;31.36;36.20;95076.19;5079854;28;20709;-72